createdAt,value
2018-08-09T00:00:50.427Z,19.40
2018-08-09T00:03:18.669Z,19.40
2018-08-09T00:05:46.910Z,19.40
2018-08-09T00:08:15.122Z,19.30
2018-08-09T00:10:43.373Z,19.30
2018-08-09T00:13:11.824Z,19.30
2018-08-09T00:15:40.083Z,19.30
2018-08-09T00:18:08.312Z,19.30
2018-08-09T00:20:36.531Z,19.20
2018-08-09T00:23:04.789Z,19.20
2018-08-09T00:25:33.015Z,19.20
2018-08-09T00:28:01.334Z,19.10
2018-08-09T00:30:29.583Z,19.10
2018-08-09T00:32:57.829Z,19.10
2018-08-09T00:35:26.098Z,19.10
2018-08-09T00:37:54.363Z,19.00
2018-08-09T00:40:22.595Z,19.00
2018-08-09T00:42:50.844Z,18.90
2018-08-09T00:45:19.075Z,18.90
2018-08-09T00:47:47.352Z,18.80
2018-08-09T00:50:15.607Z,18.70
2018-08-09T00:52:43.867Z,18.60
2018-08-09T00:55:12.110Z,18.50
2018-08-09T00:57:40.315Z,18.40
2018-08-09T01:00:08.570Z,18.40
2018-08-09T01:02:36.785Z,18.30
2018-08-09T01:05:05.235Z,18.20
2018-08-09T01:07:33.491Z,18.30
2018-08-09T01:10:01.714Z,18.30
2018-08-09T01:12:29.962Z,18.30
2018-08-09T01:14:58.204Z,18.40
2018-08-09T01:17:26.420Z,18.40
2018-08-09T01:19:54.671Z,18.40
2018-08-09T01:22:22.874Z,18.40
2018-08-09T01:24:51.123Z,18.40
2018-08-09T01:27:19.318Z,18.30
2018-08-09T01:29:47.539Z,18.30
2018-08-09T01:32:15.774Z,18.30
2018-08-09T01:34:44.134Z,18.30
2018-08-09T01:37:12.386Z,18.30
2018-08-09T01:39:40.628Z,18.30
2018-08-09T01:42:20.170Z,18.20
2018-08-09T01:44:48.430Z,18.20
2018-08-09T01:47:16.671Z,18.20
2018-08-09T01:49:44.930Z,18.20
2018-08-09T01:52:13.192Z,18.20
2018-08-09T01:54:41.411Z,18.20
2018-08-09T01:57:09.645Z,18.30
2018-08-09T01:59:37.867Z,18.30
2018-08-09T02:02:06.157Z,18.30
2018-08-09T02:04:34.538Z,18.30
2018-08-09T02:07:02.820Z,18.30
2018-08-09T02:09:33.478Z,18.30
2018-08-09T02:12:02.830Z,18.30
2018-08-09T02:14:31.083Z,18.20
2018-08-09T02:16:59.611Z,18.20
2018-08-09T02:19:27.864Z,18.20
2018-08-09T02:21:56.071Z,18.10
2018-08-09T02:24:24.377Z,18.10
2018-08-09T02:26:52.583Z,18.00
2018-08-09T02:29:20.820Z,18.00
2018-08-09T02:31:49.072Z,17.90
2018-08-09T02:34:17.318Z,17.90
2018-08-09T02:36:45.556Z,17.80
2018-08-09T02:39:13.854Z,17.80
2018-08-09T02:41:42.063Z,17.70
2018-08-09T02:44:10.292Z,17.70
2018-08-09T02:46:38.650Z,17.70
2018-08-09T02:49:06.830Z,17.70
2018-08-09T02:51:35.096Z,17.70
2018-08-09T02:54:03.330Z,17.70
2018-08-09T02:56:31.588Z,17.70
2018-08-09T02:58:59.806Z,17.70
2018-08-09T03:01:28.106Z,17.70
2018-08-09T03:03:56.641Z,17.70
2018-08-09T03:06:24.835Z,17.80
2018-08-09T03:08:53.088Z,17.80
2018-08-09T03:11:21.291Z,17.90
2018-08-09T03:13:49.545Z,17.90
2018-08-09T03:16:17.819Z,17.90
2018-08-09T03:18:46.060Z,18.00
2018-08-09T03:21:14.282Z,18.00
2018-08-09T03:23:42.499Z,18.00
2018-08-09T03:26:10.765Z,17.90
2018-08-09T03:28:38.999Z,17.90
2018-08-09T03:31:07.271Z,17.80
2018-08-09T03:33:35.566Z,17.70
2018-08-09T03:36:03.802Z,17.70
2018-08-09T03:38:32.051Z,17.70
2018-08-09T03:41:00.299Z,17.70
2018-08-09T03:43:28.514Z,17.60
2018-08-09T03:45:56.754Z,17.70
2018-08-09T03:48:25.015Z,17.70
2018-08-09T03:50:53.937Z,17.70
2018-08-09T03:53:22.839Z,17.70
2018-08-09T03:55:51.065Z,17.70
2018-08-09T03:58:19.344Z,17.70
2018-08-09T04:00:47.628Z,17.70
2018-08-09T04:03:15.909Z,17.60
2018-08-09T04:05:44.127Z,17.60
2018-08-09T04:08:12.331Z,17.60
2018-08-09T04:10:40.579Z,17.70
2018-08-09T04:13:08.831Z,17.70
2018-08-09T04:15:37.070Z,17.80
2018-08-09T04:18:05.332Z,17.80
2018-08-09T04:20:33.547Z,17.80
2018-08-09T04:23:01.779Z,17.80
2018-08-09T04:25:30.027Z,17.80
2018-08-09T04:27:58.267Z,17.80
2018-08-09T04:30:26.514Z,17.90
2018-08-09T04:32:54.728Z,18.00
2018-08-09T04:35:22.990Z,18.00
2018-08-09T04:37:51.299Z,18.10
2018-08-09T04:40:19.451Z,18.10
2018-08-09T04:42:47.647Z,18.20
2018-08-09T04:45:15.888Z,18.30
2018-08-09T04:47:44.123Z,18.30
2018-08-09T04:50:12.352Z,18.40
2018-08-09T04:52:40.584Z,18.50
2018-08-09T04:55:09.022Z,18.50
2018-08-09T04:57:37.248Z,18.60
2018-08-09T05:00:05.751Z,18.60
2018-08-09T05:02:33.988Z,18.60
2018-08-09T05:05:02.239Z,18.70
2018-08-09T05:07:30.574Z,18.70
2018-08-09T05:10:03.078Z,18.70
2018-08-09T05:12:31.307Z,18.70
2018-08-09T05:15:06.051Z,18.70
2018-08-09T05:17:34.642Z,18.70
2018-08-09T05:20:03.154Z,18.70
2018-08-09T05:22:31.387Z,18.80
2018-08-09T05:24:59.661Z,18.80
2018-08-09T05:27:27.890Z,18.80
2018-08-09T05:29:56.151Z,18.80
2018-08-09T05:32:24.375Z,18.80
2018-08-09T05:34:52.623Z,18.90
2018-08-09T05:37:20.867Z,18.90
2018-08-09T05:39:49.111Z,19.00
2018-08-09T05:42:17.395Z,19.00
2018-08-09T05:44:45.743Z,19.10
2018-08-09T05:47:13.974Z,19.10
2018-08-09T05:49:42.201Z,19.20
2018-08-09T05:52:10.440Z,19.30
2018-08-09T05:54:38.742Z,19.30
2018-08-09T05:57:06.972Z,19.30
2018-08-09T05:59:35.210Z,19.20
2018-08-09T06:02:03.481Z,19.20
2018-08-09T06:04:31.758Z,19.30
2018-08-09T06:07:00.016Z,19.30
2018-08-09T06:09:28.215Z,19.50
2018-08-09T06:11:56.443Z,19.60
2018-08-09T06:14:24.862Z,19.70
2018-08-09T06:16:53.094Z,19.80
2018-08-09T06:19:21.337Z,19.90
2018-08-09T06:21:49.624Z,20.10
2018-08-09T06:24:17.850Z,20.20
2018-08-09T06:26:46.119Z,20.20
2018-08-09T06:29:14.353Z,20.40
2018-08-09T06:31:42.600Z,20.50
2018-08-09T06:34:10.863Z,20.70
2018-08-09T06:36:39.087Z,20.90
2018-08-09T06:39:07.979Z,21.10
2018-08-09T06:41:36.615Z,21.30
2018-08-09T06:44:05.027Z,21.60
2018-08-09T06:46:33.307Z,21.90
2018-08-09T06:49:01.584Z,22.10
2018-08-09T06:51:29.799Z,22.20
2018-08-09T06:53:58.057Z,22.20
2018-08-09T06:56:26.295Z,22.20
2018-08-09T06:58:54.631Z,22.20
2018-08-09T07:01:22.910Z,22.30
2018-08-09T07:03:51.153Z,22.20
2018-08-09T07:06:19.812Z,22.20
2018-08-09T07:08:48.078Z,22.20
2018-08-09T07:11:16.299Z,22.20
2018-08-09T07:13:44.558Z,22.30
2018-08-09T07:16:12.836Z,22.20
2018-08-09T07:18:43.893Z,22.20
2018-08-09T07:21:12.170Z,22.10
2018-08-09T07:23:40.414Z,22.10
2018-08-09T07:26:08.699Z,22.10
2018-08-09T07:28:36.907Z,22.20
2018-08-09T07:31:05.143Z,22.30
2018-08-09T07:33:33.424Z,22.30
2018-08-09T07:36:01.735Z,22.40
2018-08-09T07:38:30.070Z,22.40
2018-08-09T07:40:58.314Z,22.50
2018-08-09T07:43:26.770Z,22.60
2018-08-09T07:45:55.047Z,22.70
2018-08-09T07:48:23.275Z,22.90
2018-08-09T07:50:51.535Z,23.20
2018-08-09T07:53:19.750Z,23.40
2018-08-09T07:55:47.981Z,23.70
2018-08-09T07:58:16.229Z,23.90
2018-08-09T08:00:44.466Z,24.10
2018-08-09T08:03:12.723Z,24.30
2018-08-09T08:05:40.973Z,24.40
2018-08-09T08:08:09.142Z,24.40
2018-08-09T08:10:37.405Z,24.40
2018-08-09T08:13:05.615Z,24.30
2018-08-09T08:15:33.805Z,24.30
2018-08-09T08:18:02.024Z,24.30
2018-08-09T08:20:30.347Z,24.50
2018-08-09T08:22:58.614Z,24.70
2018-08-09T08:25:26.855Z,24.90
2018-08-09T08:27:55.086Z,25.00
2018-08-09T08:30:23.335Z,25.20
2018-08-09T08:32:51.550Z,25.40
2018-08-09T08:35:19.872Z,25.50
2018-08-09T08:37:48.114Z,25.50
2018-08-09T08:40:16.347Z,25.70
2018-08-09T08:42:44.599Z,25.90
2018-08-09T08:45:13.955Z,25.90
2018-08-09T08:47:42.850Z,26.00
2018-08-09T08:50:11.631Z,26.10
2018-08-09T08:52:39.851Z,26.20
2018-08-09T08:55:09.380Z,26.20
2018-08-09T08:57:37.612Z,26.30
2018-08-09T09:00:07.620Z,26.40
2018-08-09T09:02:36.189Z,26.60
2018-08-09T09:05:06.063Z,26.70
2018-08-09T09:07:34.235Z,26.60
2018-08-09T09:10:02.488Z,26.60
2018-08-09T09:12:30.736Z,26.50
2018-08-09T09:14:58.967Z,26.40
2018-08-09T09:17:27.195Z,26.20
2018-08-09T09:19:55.455Z,26.10
2018-08-09T09:22:24.544Z,26.00
2018-08-09T09:24:52.810Z,26.00
2018-08-09T09:27:21.059Z,25.90
2018-08-09T09:29:49.288Z,25.90
2018-08-09T09:32:17.491Z,25.80
2018-08-09T09:34:45.847Z,25.60
2018-08-09T09:37:14.115Z,25.50
2018-08-09T09:39:42.404Z,25.30
2018-08-09T09:42:10.635Z,25.20
2018-08-09T09:44:38.883Z,25.10
2018-08-09T09:47:07.119Z,25.00
2018-08-09T09:49:35.338Z,24.90
2018-08-09T09:52:03.570Z,24.80
2018-08-09T09:54:31.863Z,24.70
2018-08-09T09:57:00.193Z,24.50
2018-08-09T09:59:28.892Z,24.30
2018-08-09T10:01:57.198Z,24.10
2018-08-09T10:04:25.599Z,23.90
2018-08-09T10:06:53.987Z,23.80
2018-08-09T10:09:22.890Z,23.70
2018-08-09T10:11:51.220Z,23.60
2018-08-09T10:14:20.684Z,23.50
2018-08-09T10:16:51.206Z,23.50
2018-08-09T10:19:19.458Z,23.60
2018-08-09T10:21:47.705Z,23.90
2018-08-09T10:24:16.101Z,24.00
2018-08-09T10:26:44.360Z,24.10
2018-08-09T10:29:12.653Z,24.20
2018-08-09T10:31:40.856Z,24.30
2018-08-09T10:34:09.050Z,24.30
2018-08-09T10:36:38.126Z,24.30
2018-08-09T10:39:09.496Z,24.30
2018-08-09T10:41:37.844Z,24.50
2018-08-09T10:44:06.328Z,24.70
2018-08-09T10:46:34.925Z,24.80
2018-08-09T10:49:03.497Z,25.10
2018-08-09T10:51:32.214Z,25.40
2018-08-09T10:54:00.924Z,25.50
2018-08-09T10:56:29.664Z,25.50
2018-08-09T10:58:58.415Z,25.60
2018-08-09T11:01:27.324Z,25.70
2018-08-09T11:03:56.076Z,25.80
2018-08-09T11:06:24.555Z,25.90
2018-08-09T11:08:53.390Z,26.00
2018-08-09T11:11:21.944Z,26.00
2018-08-09T11:13:50.735Z,25.80
2018-08-09T11:16:19.147Z,25.70
2018-08-09T11:18:47.725Z,25.70
2018-08-09T11:21:16.515Z,25.70
2018-08-09T11:23:45.327Z,25.80
2018-08-09T11:26:13.643Z,26.00
2018-08-09T11:28:42.740Z,26.10
2018-08-09T11:31:11.219Z,26.10
2018-08-09T11:33:39.845Z,26.10
2018-08-09T11:36:08.174Z,26.20
2018-08-09T11:38:36.774Z,26.20
2018-08-09T11:41:05.095Z,26.10
2018-08-09T11:43:33.711Z,25.90
2018-08-09T11:46:02.119Z,25.80
2018-08-09T11:48:31.914Z,25.60
2018-08-09T11:51:00.358Z,25.40
2018-08-09T11:53:28.998Z,25.20
2018-08-09T11:55:57.618Z,25.00
2018-08-09T11:58:26.029Z,24.80
2018-08-09T12:00:54.277Z,24.70
2018-08-09T12:03:22.584Z,24.50
2018-08-09T12:08:25.377Z,24.20
2018-08-09T12:10:53.929Z,24.10
2018-08-09T12:13:22.403Z,23.90
2018-08-09T12:15:51.028Z,23.80
2018-08-09T12:18:19.490Z,23.70
2018-08-09T12:20:48.476Z,23.60
2018-08-09T12:23:16.792Z,23.60
2018-08-09T12:25:45.085Z,23.60
2018-08-09T12:28:13.893Z,23.60
2018-08-09T12:30:42.139Z,23.50
2018-08-09T12:33:10.456Z,23.40
2018-08-09T12:35:38.650Z,23.40
2018-08-09T12:38:07.803Z,23.20
2018-08-09T12:40:39.257Z,23.10
2018-08-09T12:43:08.112Z,22.80
2018-08-09T12:45:36.496Z,22.40
2018-08-09T12:48:05.690Z,22.30
2018-08-09T12:50:34.742Z,22.20
2018-08-09T12:53:03.729Z,22.20
2018-08-09T12:55:31.939Z,22.30
2018-08-09T12:58:00.265Z,22.40
2018-08-09T13:00:28.670Z,22.50
2018-08-09T13:02:56.867Z,22.60
2018-08-09T13:05:25.896Z,22.70
2018-08-09T13:07:54.239Z,22.90
2018-08-09T13:10:22.957Z,22.90
2018-08-09T13:12:56.399Z,22.90
2018-08-09T13:15:26.898Z,22.90
2018-08-09T13:17:55.511Z,23.00
2018-08-09T13:20:24.175Z,23.00
2018-08-09T13:22:53.505Z,23.00
2018-08-09T13:25:21.797Z,23.00
2018-08-09T13:27:50.530Z,23.00
2018-08-09T13:30:19.757Z,23.00
2018-08-09T13:32:48.354Z,23.00
2018-08-09T13:35:16.630Z,22.90
2018-08-09T13:37:44.875Z,22.90
2018-08-09T13:40:13.133Z,22.80
2018-08-09T13:42:42.077Z,22.80
2018-08-09T13:45:14.154Z,22.70
2018-08-09T13:47:43.081Z,22.80
2018-08-09T13:50:12.756Z,22.90
2018-08-09T13:52:42.735Z,23.00
2018-08-09T13:55:13.327Z,23.10
2018-08-09T13:57:41.888Z,23.10
2018-08-09T14:00:12.706Z,23.20
2018-08-09T14:02:44.394Z,23.50
2018-08-09T14:05:13.431Z,24.30
2018-08-09T14:07:43.594Z,25.10
2018-08-09T14:10:12.453Z,26.20
2018-08-09T14:12:42.947Z,28.40
2018-08-09T14:15:13.817Z,30.60
2018-08-09T14:17:42.932Z,31.90
2018-08-09T14:20:14.235Z,31.90
2018-08-09T14:22:42.924Z,31.00
2018-08-09T14:25:11.723Z,29.90
2018-08-09T14:27:40.775Z,28.90
2018-08-09T14:30:10.655Z,28.00
2018-08-09T14:32:38.894Z,27.40
2018-08-09T14:35:09.331Z,26.80
2018-08-09T14:37:45.209Z,26.20
2018-08-09T14:40:14.186Z,25.70
2018-08-09T14:42:42.426Z,25.50
2018-08-09T14:45:13.305Z,25.40
2018-08-09T14:47:41.532Z,25.20
2018-08-09T14:50:09.816Z,25.20
2018-08-09T14:52:38.097Z,25.10
2018-08-09T14:55:07.869Z,25.00
2018-08-09T14:57:36.226Z,25.00
2018-08-09T15:00:08.909Z,25.10
2018-08-09T15:02:37.143Z,25.00
2018-08-09T15:05:05.352Z,25.00
2018-08-09T15:07:33.579Z,24.70
2018-08-09T15:10:01.796Z,24.40
2018-08-09T15:12:30.098Z,24.10
2018-08-09T15:14:58.379Z,24.10
2018-08-09T15:17:26.773Z,24.20
2018-08-09T15:19:55.011Z,24.10
2018-08-09T15:22:23.730Z,24.10
2018-08-09T15:24:51.987Z,24.30
2018-08-09T15:27:20.295Z,24.60
2018-08-09T15:29:48.599Z,24.90
2018-08-09T15:32:16.839Z,25.40
2018-08-09T15:34:45.218Z,25.80
2018-08-09T15:37:13.490Z,26.40
2018-08-09T15:39:41.703Z,26.70
2018-08-09T15:42:10.072Z,27.10
2018-08-09T15:44:38.294Z,27.30
2018-08-09T15:47:06.794Z,27.30
2018-08-09T15:49:34.980Z,27.20
2018-08-09T15:52:03.291Z,27.00
2018-08-09T15:54:31.590Z,26.80
2018-08-09T15:56:59.828Z,26.70
2018-08-09T15:59:28.072Z,26.60
2018-08-09T16:01:56.341Z,26.50
2018-08-09T16:04:24.791Z,26.40
2018-08-09T16:06:53.097Z,26.20
2018-08-09T16:09:21.347Z,26.10
2018-08-09T16:11:51.431Z,26.00
2018-08-09T16:14:20.928Z,25.90
2018-08-09T16:16:53.930Z,25.90
2018-08-09T16:19:23.336Z,25.90
2018-08-09T16:21:51.897Z,25.90
2018-08-09T16:24:20.148Z,26.00
2018-08-09T16:26:48.396Z,26.00
2018-08-09T16:29:16.650Z,26.00
2018-08-09T16:31:44.864Z,26.00
2018-08-09T16:34:13.318Z,26.00
2018-08-09T16:36:41.573Z,26.00
2018-08-09T16:39:11.840Z,26.10
2018-08-09T16:41:40.097Z,26.10
2018-08-09T16:44:08.733Z,26.20
2018-08-09T16:46:37.113Z,26.30
2018-08-09T16:49:05.724Z,26.40
2018-08-09T16:51:33.999Z,26.60
2018-08-09T16:54:02.242Z,26.70
2018-08-09T16:56:30.500Z,26.80
2018-08-09T16:58:58.751Z,26.90
2018-08-09T17:01:26.995Z,26.90
2018-08-09T17:03:55.542Z,26.80
2018-08-09T17:06:23.967Z,26.70
2018-08-09T17:08:52.271Z,26.60
2018-08-09T17:11:20.995Z,26.50
2018-08-09T17:13:50.738Z,26.40
2018-08-09T17:16:19.153Z,26.20
2018-08-09T17:18:47.582Z,26.10
2018-08-09T17:21:15.894Z,25.90
2018-08-09T17:23:44.399Z,25.80
2018-08-09T17:26:13.185Z,25.60
2018-08-09T17:28:42.287Z,25.40
2018-08-09T17:31:10.855Z,25.20
2018-08-09T17:33:39.708Z,25.10
2018-08-09T17:36:08.149Z,25.00
2018-08-09T17:38:36.463Z,24.90
2018-08-09T17:41:04.814Z,24.80
2018-08-09T17:43:33.161Z,24.60
2018-08-09T17:46:04.499Z,24.50
2018-08-09T17:48:32.946Z,24.50
2018-08-09T17:51:01.199Z,24.40
2018-08-09T17:53:29.442Z,24.40
2018-08-09T17:55:57.662Z,24.30
2018-08-09T17:58:26.906Z,24.20
2018-08-09T18:00:56.046Z,24.20
2018-08-09T18:03:24.591Z,24.10
2018-08-09T18:05:56.825Z,24.00
2018-08-09T18:08:25.179Z,23.90
2018-08-09T18:10:53.447Z,23.80
2018-08-09T18:13:21.690Z,23.80
2018-08-09T18:15:49.916Z,23.70
2018-08-09T18:18:24.683Z,23.80
2018-08-09T18:20:52.954Z,23.80
2018-08-09T18:23:21.161Z,23.80
2018-08-09T18:25:49.387Z,23.80
2018-08-09T18:28:17.631Z,23.80
2018-08-09T18:30:47.583Z,23.90
2018-08-09T18:33:20.027Z,23.90
2018-08-09T18:35:48.555Z,23.70
2018-08-09T18:38:16.901Z,23.60
2018-08-09T18:40:45.795Z,23.40
2018-08-09T18:43:14.010Z,23.20
2018-08-09T18:45:42.270Z,23.10
2018-08-09T18:48:10.932Z,23.00
2018-08-09T18:50:39.766Z,22.90
2018-08-09T18:53:08.403Z,22.80
2018-08-09T18:55:37.383Z,22.60
2018-08-09T18:58:06.432Z,22.50
2018-08-09T19:00:35.219Z,22.40
2018-08-09T19:03:04.463Z,22.20
2018-08-09T19:05:33.584Z,22.10
2018-08-09T19:08:02.635Z,22.00
2018-08-09T19:10:31.631Z,21.80
2018-08-09T19:13:00.105Z,21.80
2018-08-09T19:15:28.982Z,21.70
2018-08-09T19:17:58.014Z,21.70
2018-08-09T19:20:29.746Z,21.60
2018-08-09T19:22:58.922Z,21.50
2018-08-09T19:25:27.972Z,21.50
2018-08-09T19:27:56.591Z,21.40
2018-08-09T19:30:26.730Z,21.30
2018-08-09T19:32:55.183Z,21.30
2018-08-09T19:35:24.757Z,21.30
2018-08-09T19:37:53.383Z,21.20
2018-08-09T19:40:24.841Z,21.20
2018-08-09T19:42:53.794Z,21.20
2018-08-09T19:45:22.478Z,21.20
2018-08-09T19:47:52.111Z,21.20
2018-08-09T19:50:22.444Z,21.10
2018-08-09T19:52:51.567Z,21.10
2018-08-09T19:55:22.655Z,21.00
2018-08-09T19:57:51.657Z,21.00
2018-08-09T20:00:23.050Z,21.00
2018-08-09T20:02:52.514Z,21.00
2018-08-09T20:05:21.274Z,21.00
2018-08-09T20:07:49.914Z,20.90
2018-08-09T20:10:18.546Z,20.90
2018-08-09T20:12:47.816Z,20.80
2018-08-09T20:15:19.642Z,20.80
2018-08-09T20:17:48.702Z,20.80
2018-08-09T20:20:19.490Z,20.90
2018-08-09T20:22:48.677Z,20.90
2018-08-09T20:25:17.629Z,20.90
2018-08-09T20:27:47.321Z,20.90
2018-08-09T20:30:16.746Z,20.90
2018-08-09T20:32:46.359Z,20.80
2018-08-09T20:35:16.845Z,20.70
2018-08-09T20:37:46.435Z,20.70
2018-08-09T20:40:15.191Z,20.60
2018-08-09T20:42:44.059Z,20.60
2018-08-09T20:45:13.661Z,20.50
2018-08-09T20:47:42.732Z,20.20
2018-08-09T20:50:14.847Z,20.10
2018-08-09T20:52:45.212Z,20.00
2018-08-09T20:55:14.289Z,20.00
2018-08-09T20:57:43.872Z,19.90
2018-08-09T21:00:15.600Z,19.80
2018-08-09T21:02:45.703Z,19.80
2018-08-09T21:05:20.382Z,19.70
2018-08-09T21:07:49.599Z,19.60
2018-08-09T21:10:18.095Z,19.60
2018-08-09T21:12:47.704Z,19.60
2018-08-09T21:15:17.393Z,19.60
2018-08-09T21:17:46.693Z,19.50
2018-08-09T21:20:15.851Z,19.50
2018-08-09T21:22:45.463Z,19.50
2018-08-09T21:25:13.850Z,19.50
2018-08-09T21:27:42.920Z,19.40
2018-08-09T21:30:14.207Z,19.40
2018-08-09T21:32:43.056Z,19.30
2018-08-09T21:35:11.883Z,19.30
2018-08-09T21:37:41.401Z,19.20
2018-08-09T21:40:11.304Z,19.10
2018-08-09T21:42:40.309Z,19.00
2018-08-09T21:45:14.110Z,18.90
2018-08-09T21:47:42.410Z,18.90
2018-08-09T21:50:13.843Z,18.90
2018-08-09T21:52:42.920Z,18.80
2018-08-09T21:55:12.203Z,18.70
2018-08-09T21:57:40.715Z,18.70
2018-08-09T22:00:22.978Z,18.60
2018-08-09T22:02:51.264Z,18.60
2018-08-09T22:05:24.833Z,18.60
2018-08-09T22:07:58.469Z,18.60
2018-08-09T22:10:31.991Z,18.60
2018-08-09T22:13:05.496Z,18.60
2018-08-09T22:15:39.171Z,18.50
2018-08-09T22:18:12.823Z,18.60
2018-08-09T22:20:46.308Z,18.60
2018-08-09T22:23:14.526Z,18.60
2018-08-09T22:25:42.735Z,18.50
2018-08-09T22:28:10.991Z,18.50
2018-08-09T22:30:39.203Z,18.40
2018-08-09T22:33:07.407Z,18.40
2018-08-09T22:35:35.670Z,18.40
2018-08-09T22:38:03.886Z,18.40
2018-08-09T22:40:32.104Z,18.30
2018-08-09T22:43:00.388Z,18.20
2018-08-09T22:45:28.590Z,18.10
2018-08-09T22:47:56.810Z,18.00
2018-08-09T22:50:25.043Z,17.90
2018-08-09T22:52:53.277Z,17.80
2018-08-09T22:55:21.603Z,17.70
2018-08-09T22:57:49.835Z,17.60
2018-08-09T23:00:22.522Z,17.60
2018-08-09T23:02:51.200Z,17.50
2018-08-09T23:05:19.932Z,17.50
2018-08-09T23:07:48.179Z,17.40
2018-08-09T23:10:16.586Z,17.40
2018-08-09T23:12:44.890Z,17.30
2018-08-09T23:15:13.441Z,17.30
2018-08-09T23:17:41.682Z,17.30
2018-08-09T23:20:10.130Z,17.40
2018-08-09T23:22:38.363Z,17.40
2018-08-09T23:25:11.402Z,17.40
2018-08-09T23:27:39.640Z,17.40
2018-08-09T23:30:09.346Z,17.40
2018-08-09T23:32:37.902Z,17.40
2018-08-09T23:35:07.816Z,17.50
2018-08-09T23:37:36.151Z,17.50
2018-08-09T23:40:05.673Z,17.50
2018-08-09T23:42:34.630Z,17.40
2018-08-09T23:45:03.174Z,17.30
2018-08-09T23:47:31.397Z,17.30
2018-08-09T23:49:59.627Z,17.30
2018-08-09T23:52:27.908Z,17.30
2018-08-09T23:54:56.124Z,17.30
2018-08-09T23:57:24.430Z,17.30
2018-08-09T23:59:52.614Z,17.20
